sensor_id;sensor_type;location;lat;lon;timestamp;pressure;altitude;pressure_sealevel;temperature;humidity
45078;BME280;60508;42.622;25.416;2024-03-17T00:02:11;97109.66;;;10.09;73.82
45078;BME280;60508;42.622;25.416;2024-03-17T00:04:38;97113.03;;;10.04;73.79
45078;BME280;60508;42.622;25.416;2024-03-17T00:07:04;97115.59;;;9.99;73.40
45078;BME280;60508;42.622;25.416;2024-03-17T00:09:51;97114.84;;;9.68;74.36
45078;BME280;60508;42.622;25.416;2024-03-17T00:12:17;97110.75;;;9.65;74.43
45078;BME280;60508;42.622;25.416;2024-03-17T00:15:05;97111.53;;;9.54;74.51
45078;BME280;60508;42.622;25.416;2024-03-17T00:17:31;97108.63;;;9.56;74.40
45078;BME280;60508;42.622;25.416;2024-03-17T00:19:59;97111.56;;;9.24;75.89
45078;BME280;60508;42.622;25.416;2024-03-17T00:22:28;97109.69;;;9.24;76.91
45078;BME280;60508;42.622;25.416;2024-03-17T00:25:15;97097.53;;;9.22;76.55
45078;BME280;60508;42.622;25.416;2024-03-17T00:27:41;97092.63;;;9.19;77.00
45078;BME280;60508;42.622;25.416;2024-03-17T00:30:31;97098.63;;;9.32;77.08
45078;BME280;60508;42.622;25.416;2024-03-17T00:32:57;97094.25;;;9.38;76.65
45078;BME280;60508;42.622;25.416;2024-03-17T00:35:44;97103.78;;;9.34;76.96
45078;BME280;60508;42.622;25.416;2024-03-17T00:38:10;97095.50;;;9.36;77.16
45078;BME280;60508;42.622;25.416;2024-03-17T00:40:38;97093.47;;;9.01;77.84
45078;BME280;60508;42.622;25.416;2024-03-17T00:43:25;97097.28;;;9.11;77.89
45078;BME280;60508;42.622;25.416;2024-03-17T00:45:52;97085.56;;;9.06;78.53
45078;BME280;60508;42.622;25.416;2024-03-17T00:48:18;97088.19;;;9.12;78.39
45078;BME280;60508;42.622;25.416;2024-03-17T00:50:45;97090.56;;;9.21;78.40
45078;BME280;60508;42.622;25.416;2024-03-17T00:53:11;97086.19;;;9.08;77.67
45078;BME280;60508;42.622;25.416;2024-03-17T00:55:58;97078.84;;;9.15;78.29
45078;BME280;60508;42.622;25.416;2024-03-17T00:58:26;97082.91;;;9.36;77.74
45078;BME280;60508;42.622;25.416;2024-03-17T01:00:52;97088.25;;;9.36;77.24
45078;BME280;60508;42.622;25.416;2024-03-17T01:03:19;97083.81;;;9.30;76.96
45078;BME280;60508;42.622;25.416;2024-03-17T01:06:05;97075.50;;;9.20;77.10
45078;BME280;60508;42.622;25.416;2024-03-17T01:08:32;97084.34;;;9.20;77.50
45078;BME280;60508;42.622;25.416;2024-03-17T01:11:18;97082.50;;;9.21;77.73
45078;BME280;60508;42.622;25.416;2024-03-17T01:13:45;97083.28;;;9.09;78.08
45078;BME280;60508;42.622;25.416;2024-03-17T01:16:32;97081.53;;;9.15;77.71
45078;BME280;60508;42.622;25.416;2024-03-17T01:18:58;97071.28;;;9.12;78.26
45078;BME280;60508;42.622;25.416;2024-03-17T01:21:25;97079.16;;;9.25;77.63
45078;BME280;60508;42.622;25.416;2024-03-17T01:23:51;97077.50;;;9.24;78.06
45078;BME280;60508;42.622;25.416;2024-03-17T01:26:38;97074.53;;;9.44;77.31
45078;BME280;60508;42.622;25.416;2024-03-17T01:29:04;97080.41;;;9.53;76.77
45078;BME280;60508;42.622;25.416;2024-03-17T01:31:31;97076.72;;;9.36;77.34
45078;BME280;60508;42.622;25.416;2024-03-17T01:34:19;97075.81;;;9.42;77.14
45078;BME280;60508;42.622;25.416;2024-03-17T01:36:45;97076.84;;;9.41;77.74
45078;BME280;60508;42.622;25.416;2024-03-17T01:39:12;97083.41;;;9.45;77.33
45078;BME280;60508;42.622;25.416;2024-03-17T01:41:58;97073.47;;;9.34;77.98
45078;BME280;60508;42.622;25.416;2024-03-17T01:44:27;97078.38;;;9.37;78.17
45078;BME280;60508;42.622;25.416;2024-03-17T01:47:14;97081.31;;;9.47;77.62
45078;BME280;60508;42.622;25.416;2024-03-17T01:49:40;97073.28;;;9.47;77.43
45078;BME280;60508;42.622;25.416;2024-03-17T01:52:07;97071.25;;;9.30;77.91
45078;BME280;60508;42.622;25.416;2024-03-17T01:54:53;97078.00;;;9.33;77.66
45078;BME280;60508;42.622;25.416;2024-03-17T01:57:19;97074.75;;;9.43;77.13
45078;BME280;60508;42.622;25.416;2024-03-17T02:00:06;97076.47;;;9.25;77.38
45078;BME280;60508;42.622;25.416;2024-03-17T02:02:34;97068.13;;;9.15;78.08
45078;BME280;60508;42.622;25.416;2024-03-17T02:05:01;97068.72;;;9.17;78.36
45078;BME280;60508;42.622;25.416;2024-03-17T02:07:49;97076.72;;;9.36;77.18
45078;BME280;60508;42.622;25.416;2024-03-17T02:10:21;97063.88;;;9.26;77.13
45078;BME280;60508;42.622;25.416;2024-03-17T02:12:48;97068.22;;;9.27;77.57
45078;BME280;60508;42.622;25.416;2024-03-17T02:15:35;97060.56;;;9.12;77.68
45078;BME280;60508;42.622;25.416;2024-03-17T02:18:02;97067.56;;;8.94;78.39
45078;BME280;60508;42.622;25.416;2024-03-17T02:20:29;97068.31;;;9.02;78.50
45078;BME280;60508;42.622;25.416;2024-03-17T02:23:14;97069.81;;;9.28;77.12
45078;BME280;60508;42.622;25.416;2024-03-17T02:25:41;97070.50;;;9.23;77.50
45078;BME280;60508;42.622;25.416;2024-03-17T02:28:07;97072.16;;;9.24;77.14
45078;BME280;60508;42.622;25.416;2024-03-17T02:30:33;97077.72;;;9.23;77.38
45078;BME280;60508;42.622;25.416;2024-03-17T02:33:00;97065.78;;;9.07;78.16
45078;BME280;60508;42.622;25.416;2024-03-17T02:35:46;97072.41;;;9.04;78.48
45078;BME280;60508;42.622;25.416;2024-03-17T02:38:15;97075.91;;;9.05;78.64
45078;BME280;60508;42.622;25.416;2024-03-17T02:41:22;97065.22;;;9.17;78.28
45078;BME280;60508;42.622;25.416;2024-03-17T02:43:48;97071.34;;;9.24;77.69
45078;BME280;60508;42.622;25.416;2024-03-17T02:46:35;97069.34;;;9.19;77.69
45078;BME280;60508;42.622;25.416;2024-03-17T02:49:01;97065.53;;;9.27;77.81
45078;BME280;60508;42.622;25.416;2024-03-17T02:51:48;97066.09;;;9.29;78.09
45078;BME280;60508;42.622;25.416;2024-03-17T02:54:15;97067.78;;;9.42;76.45
45078;BME280;60508;42.622;25.416;2024-03-17T02:56:41;97067.44;;;9.38;76.82
45078;BME280;60508;42.622;25.416;2024-03-17T02:59:28;97072.53;;;9.40;75.66
45078;BME280;60508;42.622;25.416;2024-03-17T03:01:54;97071.88;;;9.14;76.45
45078;BME280;60508;42.622;25.416;2024-03-17T03:04:21;97073.41;;;9.22;76.07
45078;BME280;60508;42.622;25.416;2024-03-17T03:07:07;97072.81;;;9.20;76.87
45078;BME280;60508;42.622;25.416;2024-03-17T03:09:34;97056.94;;;9.06;77.77
45078;BME280;60508;42.622;25.416;2024-03-17T03:12:20;97057.94;;;9.24;77.40
45078;BME280;60508;42.622;25.416;2024-03-17T03:14:47;97065.25;;;9.28;77.49
45078;BME280;60508;42.622;25.416;2024-03-17T03:17:13;97062.13;;;9.31;77.03
45078;BME280;60508;42.622;25.416;2024-03-17T03:19:39;97072.53;;;9.40;76.28
45078;BME280;60508;42.622;25.416;2024-03-17T03:22:06;97071.34;;;9.24;76.82
45078;BME280;60508;42.622;25.416;2024-03-17T03:24:32;97072.88;;;8.83;77.11
45078;BME280;60508;42.622;25.416;2024-03-17T03:27:18;97064.44;;;8.67;78.14
45078;BME280;60508;42.622;25.416;2024-03-17T03:29:46;97061.06;;;8.72;79.26
45078;BME280;60508;42.622;25.416;2024-03-17T03:32:12;97071.84;;;8.84;79.21
45078;BME280;60508;42.622;25.416;2024-03-17T03:34:38;97067.47;;;8.71;79.41
45078;BME280;60508;42.622;25.416;2024-03-17T03:37:05;97076.22;;;8.97;78.58
45078;BME280;60508;42.622;25.416;2024-03-17T03:39:34;97075.16;;;8.98;78.34
45078;BME280;60508;42.622;25.416;2024-03-17T03:42:02;97063.69;;;9.09;77.29
45078;BME280;60508;42.622;25.416;2024-03-17T03:44:28;97058.72;;;8.94;78.22
45078;BME280;60508;42.622;25.416;2024-03-17T03:47:15;97080.97;;;8.94;78.06
45078;BME280;60508;42.622;25.416;2024-03-17T03:49:41;97075.16;;;8.98;77.71
45078;BME280;60508;42.622;25.416;2024-03-17T03:52:28;97085.16;;;8.90;78.29
45078;BME280;60508;42.622;25.416;2024-03-17T03:54:55;97071.19;;;8.88;78.03
45078;BME280;60508;42.622;25.416;2024-03-17T03:57:22;97081.19;;;8.93;78.47
45078;BME280;60508;42.622;25.416;2024-03-17T04:00:08;97071.41;;;8.87;78.84
45078;BME280;60508;42.622;25.416;2024-03-17T04:02:42;97079.34;;;8.93;78.07
45078;BME280;60508;42.622;25.416;2024-03-17T04:05:09;97079.66;;;8.67;78.96
45078;BME280;60508;42.622;25.416;2024-03-17T04:07:37;97074.00;;;8.75;79.10
45078;BME280;60508;42.622;25.416;2024-03-17T04:10:04;97074.84;;;8.75;78.31
45078;BME280;60508;42.622;25.416;2024-03-17T04:12:31;97076.09;;;8.73;78.68
45078;BME280;60508;42.622;25.416;2024-03-17T04:14:58;97076.25;;;8.59;79.06
45078;BME280;60508;42.622;25.416;2024-03-17T04:17:25;97082.34;;;8.67;79.08
45078;BME280;60508;42.622;25.416;2024-03-17T04:19:52;97078.69;;;8.80;78.99
45078;BME280;60508;42.622;25.416;2024-03-17T04:22:20;97087.41;;;8.75;78.85
45078;BME280;60508;42.622;25.416;2024-03-17T04:24:47;97079.97;;;8.58;79.30
45078;BME280;60508;42.622;25.416;2024-03-17T04:27:20;97075.34;;;8.47;79.46
45078;BME280;60508;42.622;25.416;2024-03-17T04:29:47;97081.03;;;8.32;80.17
45078;BME280;60508;42.622;25.416;2024-03-17T04:32:16;97091.47;;;8.15;80.79
45078;BME280;60508;42.622;25.416;2024-03-17T04:35:03;97090.00;;;8.19;81.77
45078;BME280;60508;42.622;25.416;2024-03-17T04:37:29;97093.97;;;8.35;82.14
45078;BME280;60508;42.622;25.416;2024-03-17T04:39:56;97102.97;;;8.41;81.75
45078;BME280;60508;42.622;25.416;2024-03-17T04:42:24;97099.22;;;8.49;81.13
45078;BME280;60508;42.622;25.416;2024-03-17T04:44:51;97098.69;;;8.40;81.83
45078;BME280;60508;42.622;25.416;2024-03-17T04:47:37;97100.28;;;8.41;82.52
45078;BME280;60508;42.622;25.416;2024-03-17T04:50:04;97105.66;;;8.41;82.60
45078;BME280;60508;42.622;25.416;2024-03-17T04:52:31;97109.88;;;8.55;82.09
45078;BME280;60508;42.622;25.416;2024-03-17T04:55:17;97108.81;;;8.75;81.03
45078;BME280;60508;42.622;25.416;2024-03-17T04:57:45;97111.59;;;8.87;80.34
45078;BME280;60508;42.622;25.416;2024-03-17T05:00:11;97105.94;;;8.95;80.09
45078;BME280;60508;42.622;25.416;2024-03-17T05:02:40;97105.47;;;8.98;78.81
45078;BME280;60508;42.622;25.416;2024-03-17T05:05:11;97108.06;;;8.86;78.96
45078;BME280;60508;42.622;25.416;2024-03-17T05:08:01;97114.28;;;8.87;78.99
45078;BME280;60508;42.622;25.416;2024-03-17T05:10:27;97116.13;;;8.86;79.21
45078;BME280;60508;42.622;25.416;2024-03-17T05:12:54;97106.75;;;8.77;79.81
45078;BME280;60508;42.622;25.416;2024-03-17T05:15:42;97115.38;;;8.79;80.72
45078;BME280;60508;42.622;25.416;2024-03-17T05:18:08;97117.03;;;8.80;80.35
45078;BME280;60508;42.622;25.416;2024-03-17T05:21:12;97127.75;;;8.80;80.16
45078;BME280;60508;42.622;25.416;2024-03-17T05:23:39;97125.22;;;8.85;80.64
45078;BME280;60508;42.622;25.416;2024-03-17T05:26:06;97120.06;;;9.02;79.71
45078;BME280;60508;42.622;25.416;2024-03-17T05:28:32;97128.22;;;9.07;80.24
45078;BME280;60508;42.622;25.416;2024-03-17T05:30:59;97126.25;;;9.03;80.49
45078;BME280;60508;42.622;25.416;2024-03-17T05:33:45;97128.34;;;9.31;79.26
45078;BME280;60508;42.622;25.416;2024-03-17T05:36:14;97127.78;;;9.10;78.85
45078;BME280;60508;42.622;25.416;2024-03-17T05:39:01;97142.63;;;9.13;79.50
45078;BME280;60508;42.622;25.416;2024-03-17T05:41:28;97137.16;;;9.20;78.82
45078;BME280;60508;42.622;25.416;2024-03-17T05:43:54;97131.72;;;9.26;78.88
45078;BME280;60508;42.622;25.416;2024-03-17T05:46:44;97139.72;;;9.14;79.29
45078;BME280;60508;42.622;25.416;2024-03-17T05:49:10;97135.69;;;9.05;80.16
45078;BME280;60508;42.622;25.416;2024-03-17T05:51:37;97143.38;;;9.02;80.17
45078;BME280;60508;42.622;25.416;2024-03-17T05:54:03;97135.69;;;9.05;79.67
45078;BME280;60508;42.622;25.416;2024-03-17T05:56:49;97139.56;;;9.09;79.63
45078;BME280;60508;42.622;25.416;2024-03-17T05:59:17;97148.59;;;8.97;80.53
45078;BME280;60508;42.622;25.416;2024-03-17T06:02:03;97150.06;;;9.11;79.52
45078;BME280;60508;42.622;25.416;2024-03-17T06:04:30;97153.63;;;9.23;79.46
45078;BME280;60508;42.622;25.416;2024-03-17T06:06:56;97157.84;;;9.31;78.92
45078;BME280;60508;42.622;25.416;2024-03-17T06:09:22;97149.09;;;9.24;79.21
45078;BME280;60508;42.622;25.416;2024-03-17T06:11:49;97160.91;;;9.35;79.29
45078;BME280;60508;42.622;25.416;2024-03-17T06:14:16;97157.00;;;9.49;78.51
45078;BME280;60508;42.622;25.416;2024-03-17T06:16:43;97162.81;;;9.46;78.40
45078;BME280;60508;42.622;25.416;2024-03-17T06:19:10;97160.88;;;9.53;77.97
45078;BME280;60508;42.622;25.416;2024-03-17T06:21:37;97164.25;;;9.48;77.33
45078;BME280;60508;42.622;25.416;2024-03-17T06:24:25;97155.22;;;9.43;77.32
45078;BME280;60508;42.622;25.416;2024-03-17T06:26:51;97158.66;;;9.50;77.10
45078;BME280;60508;42.622;25.416;2024-03-17T06:29:17;97161.38;;;9.62;77.56
45078;BME280;60508;42.622;25.416;2024-03-17T06:32:05;97163.59;;;9.65;77.02
45078;BME280;60508;42.622;25.416;2024-03-17T06:34:32;97177.88;;;9.77;77.07
45078;BME280;60508;42.622;25.416;2024-03-17T06:37:02;97176.09;;;10.01;75.50
45078;BME280;60508;42.622;25.416;2024-03-17T06:39:33;97176.66;;;10.03;75.60
45078;BME280;60508;42.622;25.416;2024-03-17T06:42:20;97168.84;;;10.02;75.48
45078;BME280;60508;42.622;25.416;2024-03-17T06:44:46;97180.56;;;10.19;75.00
45078;BME280;60508;42.622;25.416;2024-03-17T06:47:12;97181.56;;;9.95;75.94
45078;BME280;60508;42.622;25.416;2024-03-17T06:49:39;97180.66;;;10.13;75.07
45078;BME280;60508;42.622;25.416;2024-03-17T06:52:05;97176.72;;;10.27;74.84
45078;BME280;60508;42.622;25.416;2024-03-17T06:54:32;97180.72;;;10.60;74.46
45078;BME280;60508;42.622;25.416;2024-03-17T06:57:19;97181.47;;;10.25;74.97
45078;BME280;60508;42.622;25.416;2024-03-17T06:59:46;97178.38;;;10.64;73.78
45078;BME280;60508;42.622;25.416;2024-03-17T07:02:34;97178.16;;;10.89;73.26
45078;BME280;60508;42.622;25.416;2024-03-17T07:05:02;97181.03;;;11.11;71.93
45078;BME280;60508;42.622;25.416;2024-03-17T07:07:48;97178.72;;;10.91;72.68
45078;BME280;60508;42.622;25.416;2024-03-17T07:10:15;97181.53;;;10.96;73.00
45078;BME280;60508;42.622;25.416;2024-03-17T07:13:01;97182.66;;;11.12;71.26
45078;BME280;60508;42.622;25.416;2024-03-17T07:15:28;97182.44;;;11.13;71.68
45078;BME280;60508;42.622;25.416;2024-03-17T07:17:54;97181.41;;;10.91;72.17
45078;BME280;60508;42.622;25.416;2024-03-17T07:20:40;97191.91;;;10.33;74.54
45078;BME280;60508;42.622;25.416;2024-03-17T07:23:07;97181.81;;;10.17;75.43
45078;BME280;60508;42.622;25.416;2024-03-17T07:25:55;97186.81;;;10.44;74.42
45078;BME280;60508;42.622;25.416;2024-03-17T07:28:22;97180.47;;;10.38;73.80
45078;BME280;60508;42.622;25.416;2024-03-17T07:30:56;97191.97;;;10.81;72.25
45078;BME280;60508;42.622;25.416;2024-03-17T07:33:23;97184.25;;;10.37;73.64
45078;BME280;60508;42.622;25.416;2024-03-17T07:36:09;97183.06;;;10.80;72.52
45078;BME280;60508;42.622;25.416;2024-03-17T07:38:37;97180.00;;;10.88;72.02
45078;BME280;60508;42.622;25.416;2024-03-17T07:41:11;97175.81;;;10.92;71.50
45078;BME280;60508;42.622;25.416;2024-03-17T07:43:45;97183.94;;;11.21;70.54
45078;BME280;60508;42.622;25.416;2024-03-17T07:46:12;97189.28;;;11.33;69.20
45078;BME280;60508;42.622;25.416;2024-03-17T07:48:40;97181.53;;;11.08;69.60
45078;BME280;60508;42.622;25.416;2024-03-17T07:51:12;97179.38;;;11.22;70.26
45078;BME280;60508;42.622;25.416;2024-03-17T07:53:40;97174.50;;;11.76;68.15
45078;BME280;60508;42.622;25.416;2024-03-17T07:56:27;97177.38;;;11.29;69.40
45078;BME280;60508;42.622;25.416;2024-03-17T07:58:54;97174.13;;;11.56;69.73
45078;BME280;60508;42.622;25.416;2024-03-17T08:01:20;97179.03;;;11.87;68.05
45078;BME280;60508;42.622;25.416;2024-03-17T08:03:47;97178.69;;;11.84;67.69
45078;BME280;60508;42.622;25.416;2024-03-17T08:06:40;97173.22;;;12.24;65.67
45078;BME280;60508;42.622;25.416;2024-03-17T08:09:10;97170.94;;;11.87;66.25
45078;BME280;60508;42.622;25.416;2024-03-17T08:11:58;97164.00;;;12.03;66.19
45078;BME280;60508;42.622;25.416;2024-03-17T08:14:24;97161.72;;;12.29;64.98
45078;BME280;60508;42.622;25.416;2024-03-17T08:16:51;97164.66;;;12.45;64.29
45078;BME280;60508;42.622;25.416;2024-03-17T08:19:17;97163.44;;;12.35;64.08
45078;BME280;60508;42.622;25.416;2024-03-17T08:21:43;97161.63;;;12.41;62.04
45078;BME280;60508;42.622;25.416;2024-03-17T08:24:31;97167.34;;;12.45;62.62
45078;BME280;60508;42.622;25.416;2024-03-17T08:26:57;97161.63;;;12.58;62.01
45078;BME280;60508;42.622;25.416;2024-03-17T08:29:24;97166.19;;;12.57;60.77
45078;BME280;60508;42.622;25.416;2024-03-17T08:31:50;97155.25;;;12.47;59.74
45078;BME280;60508;42.622;25.416;2024-03-17T08:34:16;97145.34;;;12.70;60.13
45078;BME280;60508;42.622;25.416;2024-03-17T08:37:03;97146.97;;;13.10;59.16
45078;BME280;60508;42.622;25.416;2024-03-17T08:39:30;97160.44;;;13.32;58.34
45078;BME280;60508;42.622;25.416;2024-03-17T08:41:56;97152.41;;;13.59;56.88
45078;BME280;60508;42.622;25.416;2024-03-17T08:44:22;97152.84;;;14.00;56.85
45078;BME280;60508;42.622;25.416;2024-03-17T08:47:09;97145.59;;;14.43;55.30
45078;BME280;60508;42.622;25.416;2024-03-17T08:49:35;97144.88;;;13.88;57.44
45078;BME280;60508;42.622;25.416;2024-03-17T08:52:02;97156.34;;;13.74;57.13
45078;BME280;60508;42.622;25.416;2024-03-17T08:54:28;97142.75;;;13.91;56.68
45078;BME280;60508;42.622;25.416;2024-03-17T08:56:54;97147.91;;;13.92;56.69
45078;BME280;60508;42.622;25.416;2024-03-17T08:59:21;97142.41;;;14.14;55.41
45078;BME280;60508;42.622;25.416;2024-03-17T09:01:47;97140.06;;;14.23;55.50
45078;BME280;60508;42.622;25.416;2024-03-17T09:04:33;97142.16;;;14.16;55.21
45078;BME280;60508;42.622;25.416;2024-03-17T09:07:00;97135.94;;;14.15;54.13
45078;BME280;60508;42.622;25.416;2024-03-17T09:09:30;97133.53;;;14.19;53.10
45078;BME280;60508;42.622;25.416;2024-03-17T09:11:56;97130.97;;;14.72;51.42
45078;BME280;60508;42.622;25.416;2024-03-17T09:14:23;97129.59;;;14.69;51.79
45078;BME280;60508;42.622;25.416;2024-03-17T09:17:09;97142.94;;;15.39;49.35
45078;BME280;60508;42.622;25.416;2024-03-17T09:19:35;97128.38;;;15.66;47.93
45078;BME280;60508;42.622;25.416;2024-03-17T09:22:22;97125.53;;;17.91;43.57
45078;BME280;60508;42.622;25.416;2024-03-17T09:24:48;97133.72;;;18.20;40.99
45078;BME280;60508;42.622;25.416;2024-03-17T09:27:15;97128.50;;;17.94;40.96
45078;BME280;60508;42.622;25.416;2024-03-17T09:29:48;97122.34;;;17.23;40.90
45078;BME280;60508;42.622;25.416;2024-03-17T09:32:14;97120.63;;;16.31;43.25
45078;BME280;60508;42.622;25.416;2024-03-17T09:34:47;97114.94;;;16.02;44.15
45078;BME280;60508;42.622;25.416;2024-03-17T09:37:36;97105.13;;;16.42;44.26
45078;BME280;60508;42.622;25.416;2024-03-17T09:40:02;97102.69;;;15.84;45.29
45078;BME280;60508;42.622;25.416;2024-03-17T09:42:32;97107.75;;;15.60;46.93
45078;BME280;60508;42.622;25.416;2024-03-17T09:45:02;97092.09;;;15.62;47.15
45078;BME280;60508;42.622;25.416;2024-03-17T09:47:29;97097.97;;;15.33;46.93
45078;BME280;60508;42.622;25.416;2024-03-17T09:49:55;97098.03;;;15.59;47.85
45078;BME280;60508;42.622;25.416;2024-03-17T09:52:23;97101.50;;;15.39;47.72
45078;BME280;60508;42.622;25.416;2024-03-17T09:54:58;97089.44;;;16.08;46.49
45078;BME280;60508;42.622;25.416;2024-03-17T09:57:25;97096.66;;;19.74;39.51
45078;BME280;60508;42.622;25.416;2024-03-17T09:59:53;97091.53;;;22.28;34.54
45078;BME280;60508;42.622;25.416;2024-03-17T10:02:22;97090.03;;;22.44;33.21
45078;BME280;60508;42.622;25.416;2024-03-17T10:05:22;97097.00;;;24.05;31.67
45078;BME280;60508;42.622;25.416;2024-03-17T10:07:49;97088.28;;;24.03;30.60
45078;BME280;60508;42.622;25.416;2024-03-17T10:10:20;97094.47;;;22.94;31.43
45078;BME280;60508;42.622;25.416;2024-03-17T10:13:11;97092.28;;;22.73;31.98
45078;BME280;60508;42.622;25.416;2024-03-17T10:15:48;97085.91;;;22.87;31.86
45078;BME280;60508;42.622;25.416;2024-03-17T10:18:35;97077.78;;;21.60;34.08
45078;BME280;60508;42.622;25.416;2024-03-17T10:21:02;97076.03;;;19.49;36.43
45078;BME280;60508;42.622;25.416;2024-03-17T10:24:07;97075.28;;;17.38;40.69
45078;BME280;60508;42.622;25.416;2024-03-17T10:26:53;97072.75;;;17.02;43.27
45078;BME280;60508;42.622;25.416;2024-03-17T10:29:43;97063.91;;;16.40;43.10
45078;BME280;60508;42.622;25.416;2024-03-17T10:32:16;97069.88;;;16.37;42.55
45078;BME280;60508;42.622;25.416;2024-03-17T10:35:03;97060.94;;;16.36;42.34
45078;BME280;60508;42.622;25.416;2024-03-17T10:37:30;97061.25;;;15.99;43.65
45078;BME280;60508;42.622;25.416;2024-03-17T10:39:57;97072.34;;;15.82;43.21
45078;BME280;60508;42.622;25.416;2024-03-17T10:42:27;97068.56;;;16.19;43.46
45078;BME280;60508;42.622;25.416;2024-03-17T10:45:06;97057.56;;;17.91;39.76
45078;BME280;60508;42.622;25.416;2024-03-17T10:47:54;97060.34;;;21.69;34.77
45078;BME280;60508;42.622;25.416;2024-03-17T10:50:22;97056.50;;;23.94;31.28
45078;BME280;60508;42.622;25.416;2024-03-17T10:52:55;97052.09;;;23.75;29.66
45078;BME280;60508;42.622;25.416;2024-03-17T10:55:26;97056.41;;;22.52;30.66
45078;BME280;60508;42.622;25.416;2024-03-17T10:57:54;97061.13;;;19.22;34.65
45078;BME280;60508;42.622;25.416;2024-03-17T11:00:44;97051.22;;;18.00;36.48
45078;BME280;60508;42.622;25.416;2024-03-17T11:03:13;97052.59;;;17.08;38.67
45078;BME280;60508;42.622;25.416;2024-03-17T11:06:03;97048.81;;;17.09;39.33
45078;BME280;60508;42.622;25.416;2024-03-17T11:08:32;97038.19;;;16.22;40.14
45078;BME280;60508;42.622;25.416;2024-03-17T11:11:00;97047.44;;;16.00;40.61
45078;BME280;60508;42.622;25.416;2024-03-17T11:13:28;97045.25;;;15.87;40.91
45078;BME280;60508;42.622;25.416;2024-03-17T11:15:55;97038.50;;;15.79;41.70
45078;BME280;60508;42.622;25.416;2024-03-17T11:23:29;97033.91;;;16.00;40.09
45078;BME280;60508;42.622;25.416;2024-03-17T11:25:56;97028.97;;;17.59;37.67
45078;BME280;60508;42.622;25.416;2024-03-17T11:31:36;97024.81;;;18.59;34.79
45078;BME280;60508;42.622;25.416;2024-03-17T11:34:04;97022.22;;;17.06;36.94
45078;BME280;60508;42.622;25.416;2024-03-17T11:36:36;97022.50;;;17.05;37.82
45078;BME280;60508;42.622;25.416;2024-03-17T11:47:04;97012.97;;;26.34;25.69
45078;BME280;60508;42.622;25.416;2024-03-17T11:49:40;97009.34;;;28.38;23.68
45078;BME280;60508;42.622;25.416;2024-03-17T11:52:26;97003.56;;;29.07;22.50
45078;BME280;60508;42.622;25.416;2024-03-17T11:54:53;97006.34;;;27.59;22.53
45078;BME280;60508;42.622;25.416;2024-03-17T11:57:39;97000.63;;;22.71;26.85
45078;BME280;60508;42.622;25.416;2024-03-17T12:00:18;96997.84;;;21.26;28.79
45078;BME280;60508;42.622;25.416;2024-03-17T12:02:48;96989.63;;;21.40;30.44
45078;BME280;60508;42.622;25.416;2024-03-17T12:05:14;96989.94;;;21.39;30.70
45078;BME280;60508;42.622;25.416;2024-03-17T12:07:44;96996.50;;;22.51;28.73
45078;BME280;60508;42.622;25.416;2024-03-17T12:10:11;96984.72;;;20.31;31.03
45078;BME280;60508;42.622;25.416;2024-03-17T12:12:39;96984.44;;;21.75;30.08
45078;BME280;60508;42.622;25.416;2024-03-17T12:15:32;96980.75;;;23.75;27.05
45078;BME280;60508;42.622;25.416;2024-03-17T12:18:20;96987.63;;;20.82;31.50
45078;BME280;60508;42.622;25.416;2024-03-17T12:20:49;96979.28;;;20.31;31.85
45078;BME280;60508;42.622;25.416;2024-03-17T12:23:36;96985.22;;;19.53;32.85
45078;BME280;60508;42.622;25.416;2024-03-17T12:26:02;96982.19;;;18.98;33.40
45078;BME280;60508;42.622;25.416;2024-03-17T12:28:30;96980.06;;;18.47;34.48
45078;BME280;60508;42.622;25.416;2024-03-17T12:31:17;96973.06;;;18.65;35.71
45078;BME280;60508;42.622;25.416;2024-03-17T12:33:43;96978.69;;;19.68;33.56
45078;BME280;60508;42.622;25.416;2024-03-17T12:36:11;96971.69;;;20.14;33.43
45078;BME280;60508;42.622;25.416;2024-03-17T12:38:39;96966.50;;;21.24;31.33
45078;BME280;60508;42.622;25.416;2024-03-17T12:41:25;96969.84;;;20.70;32.04
45078;BME280;60508;42.622;25.416;2024-03-17T12:43:52;96964.41;;;22.42;30.64
45078;BME280;60508;42.622;25.416;2024-03-17T12:46:20;96962.19;;;23.81;27.75
45078;BME280;60508;42.622;25.416;2024-03-17T12:48:46;96958.19;;;25.54;25.21
45078;BME280;60508;42.622;25.416;2024-03-17T12:51:33;96959.78;;;23.97;26.70
45078;BME280;60508;42.622;25.416;2024-03-17T12:54:13;96966.28;;;21.20;30.65
45078;BME280;60508;42.622;25.416;2024-03-17T12:56:39;96955.19;;;19.02;34.10
45078;BME280;60508;42.622;25.416;2024-03-17T12:59:24;96952.88;;;17.93;35.67
45078;BME280;60508;42.622;25.416;2024-03-17T13:02:29;96940.84;;;18.96;33.81
45078;BME280;60508;42.622;25.416;2024-03-17T13:07:32;96949.47;;;22.49;29.00
45078;BME280;60508;42.622;25.416;2024-03-17T13:09:59;96946.47;;;22.68;27.84
45078;BME280;60508;42.622;25.416;2024-03-17T13:12:46;96939.16;;;22.14;28.98
45078;BME280;60508;42.622;25.416;2024-03-17T13:15:15;96939.28;;;20.82;30.08
45078;BME280;60508;42.622;25.416;2024-03-17T13:17:43;96934.28;;;19.16;32.22
45078;BME280;60508;42.622;25.416;2024-03-17T13:20:16;96931.66;;;17.95;34.30
45078;BME280;60508;42.622;25.416;2024-03-17T13:23:03;96925.44;;;17.26;35.03
45078;BME280;60508;42.622;25.416;2024-03-17T13:25:31;96928.13;;;16.91;35.74
45078;BME280;60508;42.622;25.416;2024-03-17T13:28:03;96931.91;;;16.90;35.69
45078;BME280;60508;42.622;25.416;2024-03-17T13:30:30;96927.06;;;16.77;35.95
45078;BME280;60508;42.622;25.416;2024-03-17T13:32:59;96918.63;;;16.84;36.17
45078;BME280;60508;42.622;25.416;2024-03-17T13:35:29;96931.44;;;16.73;37.32
45078;BME280;60508;42.622;25.416;2024-03-17T13:37:59;96930.59;;;16.88;36.83
45078;BME280;60508;42.622;25.416;2024-03-17T13:40:26;96929.75;;;16.92;35.45
45078;BME280;60508;42.622;25.416;2024-03-17T13:43:13;96924.16;;;17.52;35.34
45078;BME280;60508;42.622;25.416;2024-03-17T13:45:45;96926.03;;;17.86;35.45